Terminal Aerodrome Forecast
Issued by NWS

Home | Current Version | Previous Version | Text Only | Print | Product List | Glossary On
Versions: 1 2 3 4 5 6 7 8 9 10 11 12 13 14 15 16
000
FTUS41 KGYX 230222 AAA
TAFPSM
TAF AMD
KPSM 230222Z 2302/2324 22012KT P6SM SCT050 OVC100 WS020/26045KT
     FM231400 25008KT P6SM BKN050=

USA.gov is the U.S. government's official web portal to all federal, state and local government web resources and services.